• Join FlightAware (Why Join?)
  • Login
  • US Flag 
01:33PM EDT


 

Airport Tracker/Info


-or-


 

Live Flight TrackerFlight Track Log ✈ SWA2359 ✈ 18-May-2013 ✈ KTUS - KMDW

Flight Track Log - Related Links

Times and Time Zones

All times are in EDT time to prevent confusion due to time zone crossing. See the SWA2359 flight status page for this flight to view local times or setup timezone preferences in your user account.

Time Position Orientation Groundspeed Altitude Reporting Facility
EDT Latitude Longitude Course Direction KTS MPH feet Rate Location/Type
10:40AM 32.1006 -110.9206 132° Southeast 170 196 3,300  Level Albuquerque Center
10:40AM 32.0831 -110.8975 132° Southeast 181 208 4,200 2,040 Climbing Albuquerque Center
10:42AM 32.0267 -110.7417 113° Southeast 294 338 8,500 2,220 Climbing Albuquerque Center
10:43AM 32.0222 -110.6944 96° East 287 330 10,200 2,640 Climbing Albuquerque Center
10:43AM 32.0147 -110.6494 101° East 309 356 10,900 2,400 Climbing Albuquerque Center
10:44AM 32.0061 -110.5692 97° East 329 379 12,700 2,700 Climbing Albuquerque Center
10:45AM 31.9906 -110.4456 98° East 371 427 15,800 2,700 Climbing Albuquerque Center
10:46AM 31.9761 -110.3208 98° East 385 443 18,300 2,340 Climbing Albuquerque Center
10:47AM 31.9811 -110.1858 87° East 427 491 20,600 2,220 Climbing Albuquerque Center
10:48AM 32.0603 -110.0833 48° Northeast 429 494 22,900 2,280 Climbing Albuquerque Center
10:49AM 32.1614 -109.9581 46° Northeast 440 506 25,300 2,040 Climbing Albuquerque Center
10:50AM 32.2464 -109.8478 48° Northeast 453 521 27,200 1,620 Climbing Albuquerque Center
10:51AM 32.3336 -109.7361 47° Northeast 460 529 28,700 1,380 Climbing Albuquerque Center
10:52AM 32.4239 -109.6217 47° Northeast 470 541 30,100 1,560 Climbing Albuquerque Center
10:53AM 32.5139 -109.4997 49° Northeast 485 558 31,900 1,380 Climbing Albuquerque Center
10:54AM 32.6217 -109.3586 48° Northeast 487 560 33,000 840 Climbing Albuquerque Center
10:55AM 32.7108 -109.2417 48° Northeast 483 556 33,700 480 Climbing Albuquerque Center
10:56AM 32.7997 -109.1253 48° Northeast 482 555 34,000 720 Climbing Albuquerque Center
10:57AM 32.8950 -109.0008 48° Northeast 486 559 35,200 1,260 Climbing Albuquerque Center
10:58AM 32.9839 -108.8814 48° Northeast 485 558 36,600 840 Climbing Albuquerque Center
10:59AM 33.0778 -108.7556 48° Northeast 484 557 37,000 180 Climbing Albuquerque Center
11:00AM 33.1667 -108.6367 48° Northeast 485 558 37,000  Level Albuquerque Center
11:01AM 33.2553 -108.5183 48° Northeast 483 556 37,000  Level Albuquerque Center
11:02AM 33.3442 -108.3981 48° Northeast 485 558 37,000  Level Albuquerque Center
11:03AM 33.4519 -108.2531 48° Northeast 488 562 37,000  Level Albuquerque Center
11:04AM 33.5419 -108.1308 49° Northeast 489 563 37,000  Level Albuquerque Center
11:05AM 33.6328 -108.0067 49° Northeast 492 566 37,000  Level Albuquerque Center
11:06AM 33.7244 -107.8825 48° Northeast 495 570 37,000  Level Albuquerque Center
11:07AM 33.8164 -107.7561 49° Northeast 498 573 37,000  Level Albuquerque Center
11:08AM 33.9067 -107.6294 49° Northeast 499 574 37,000  Level Albuquerque Center
11:09AM 33.9981 -107.5022 49° Northeast 500 575 37,000  Level Albuquerque Center
11:10AM 34.0722 -107.3606 58° Northeast 501 577 37,000  Level Albuquerque Center
11:11AM 34.1597 -107.1869 59° Northeast 505 581 37,000  Level Albuquerque Center
11:13AM 34.2325 -107.0433 58° Northeast 502 578 37,000  Level Albuquerque Center
11:14AM 34.3094 -106.8975 57° Northeast 497 572 37,000  Level Albuquerque Center
11:15AM 34.3814 -106.7478 60° Northeast 495 570 37,000  Level Albuquerque Center
11:16AM 34.4528 -106.6067 58° Northeast 496 571 37,000  Level Albuquerque Center
11:17AM 34.5225 -106.4653 59° Northeast 494 568 37,000  Level Albuquerque Center
11:18AM 34.5917 -106.3261 59° Northeast 488 562 37,000  Level Albuquerque Center
11:19AM 34.6650 -106.1739 60° Northeast 488 562 37,000  Level Albuquerque Center
11:20AM 34.7386 -106.0286 58° Northeast 496 571 37,000  Level Albuquerque Center
11:21AM 34.8089 -105.8839 59° Northeast 494 568 37,000  Level Albuquerque Center
11:22AM 34.8908 -105.7147 59° Northeast 494 568 37,000  Level Albuquerque Center
11:23AM 34.9608 -105.5714 59° Northeast 490 564 37,000  Level Albuquerque Center
11:24AM 35.0306 -105.4278 59° Northeast 488 562 37,000  Level Albuquerque Center
11:25AM 35.1000 -105.2828 60° Northeast 489 563 37,000  Level Albuquerque Center
11:26AM 35.1697 -105.1392 59° Northeast 488 562 37,000  Level Albuquerque Center
11:27AM 35.2383 -104.9939 60° Northeast 488 562 37,000  Level Albuquerque Center
11:28AM 35.3075 -104.8486 60° Northeast 488 562 37,000  Level Albuquerque Center
11:29AM 35.3772 -104.7019 60° Northeast 490 564 37,000  Level Albuquerque Center
11:30AM 35.4461 -104.5544 60° Northeast 490 564 37,000  Level Albuquerque Center
11:31AM 35.5153 -104.4078 60° Northeast 489 563 37,000  Level Albuquerque Center
11:32AM 35.5839 -104.2622 60° Northeast 485 558 37,000  Level Albuquerque Center
11:33AM 35.6628 -104.0931 60° Northeast 482 555 37,000  Level Albuquerque Center
11:34AM 35.7289 -103.9483 61° Northeast 480 552 37,000  Level Albuquerque Center
11:35AM 35.7956 -103.8047 60° Northeast 479 551 37,000  Level Albuquerque Center
11:36AM 35.8622 -103.6581 61° Northeast 482 555 37,000  Level Albuquerque Center
11:37AM 35.9286 -103.5144 60° Northeast 480 552 37,000  Level Albuquerque Center
11:38AM 35.9939 -103.3703 61° Northeast 478 550 37,000  Level Albuquerque Center
11:39AM 36.0581 -103.2258 61° Northeast 476 548 37,000  Level Albuquerque Center
11:40AM 36.1231 -103.0817 61° Northeast 475 547 37,000  Level Albuquerque Center
11:41AM 36.1886 -102.9378 61° Northeast 476 548 37,000  Level Albuquerque Center
11:42AM 36.2569 -102.7842 61° Northeast 475 547 37,000 60 Level Albuquerque Center
11:43AM 36.3219 -102.6403 61° Northeast 476 548 37,200 600 Climbing Albuquerque Center
11:44AM 36.3861 -102.4928 62° Northeast 483 556 38,300 840 Climbing Albuquerque Center
11:45AM 36.4511 -102.3453 61° Northeast 485 558 39,000 300 Climbing Albuquerque Center
11:46AM 36.5156 -102.1972 62° Northeast 486 559 39,000  Level Albuquerque Center
11:48AM 36.5931 -102.0208 61° Northeast 484 557 39,000  Level Albuquerque Center
11:49AM 36.6564 -101.8756 61° Northeast 484 557 39,000  Level Albuquerque Center
11:50AM 36.7167 -101.7361 62° Northeast 481 554 39,000  Level Albuquerque Center
11:51AM 36.7869 -101.5747 61° Northeast 476 548 39,000  Level Albuquerque Center
11:52AM 36.8461 -101.4333 62° Northeast 478 550 39,000  Level Albuquerque Center
11:52AM 36.8864 -101.3408 61° Northeast 478 550 39,000  Level Kansas City Center
11:53AM 36.9550 -101.1789 62° Northeast 475 547 39,000  Level Kansas City Center
11:54AM 37.0142 -101.0389 62° Northeast 477 549 39,000  Level Kansas City Center
11:55AM 37.0731 -100.8983 62° Northeast 478 550 39,000  Level Kansas City Center
11:56AM 37.1408 -100.7367 62° Northeast 475 547 39,000  Level Kansas City Center
11:57AM 37.1989 -100.5978 62° Northeast 472 543 39,000  Level Kansas City Center
11:58AM 37.2661 -100.4364 62° Northeast 471 542 39,000  Level Kansas City Center
11:59AM 37.3231 -100.2981 63° Northeast 470 541 39,000  Level Kansas City Center
12:00PM 37.3897 -100.1369 62° Northeast 468 539 39,000  Level Kansas City Center
12:02PM 37.4467 -99.9983 63° Northeast 468 539 39,000  Level Kansas City Center
12:03PM 37.5128 -99.8358 63° Northeast 469 540 39,000  Level Kansas City Center
12:04PM 37.5708 -99.6936 63° Northeast 475 547 39,000  Level Kansas City Center
12:05PM 37.6381 -99.5322 62° Northeast 469 540 39,000  Level Kansas City Center
12:06PM 37.6944 -99.3914 63° Northeast 466 536 39,000  Level Kansas City Center
12:07PM 37.7519 -99.2444 64° Northeast 466 536 39,000  Level Kansas City Center
12:08PM 37.8094 -99.0981 64° Northeast 465 535 39,000  Level Kansas City Center
12:09PM 37.8681 -98.9500 63° Northeast 469 540 39,000  Level Kansas City Center
12:10PM 37.9264 -98.8019 63° Northeast 469 540 39,000  Level Kansas City Center
12:11PM 37.9853 -98.6522 63° Northeast 471 542 39,000  Level Kansas City Center
12:12PM 38.0575 -98.4733 63° Northeast 475 547 39,000  Level Kansas City Center
12:13PM 38.1158 -98.3222 64° Northeast 475 547 39,000  Level Kansas City Center
12:14PM 38.1742 -98.1703 64° Northeast 474 545 39,000  Level Kansas City Center
12:15PM 38.2331 -98.0203 63° Northeast 470 541 39,000  Level Kansas City Center
12:16PM 38.2889 -97.8700 65° Northeast 466 536 39,000  Level Kansas City Center
12:17PM 38.3458 -97.7222 64° Northeast 461 531 39,000  Level Kansas City Center
12:18PM 38.4017 -97.5742 64° Northeast 461 531 39,000  Level Kansas City Center
12:19PM 38.4575 -97.4269 64° Northeast 459 528 39,000  Level Kansas City Center
12:20PM 38.5128 -97.2797 64° Northeast 460 529 39,000  Level Kansas City Center
12:21PM 38.5675 -97.1325 65° Northeast 458 527 39,000  Level Kansas City Center
12:22PM 38.6333 -96.9550 65° Northeast 460 529 39,000  Level Kansas City Center
12:23PM 38.6897 -96.8022 65° Northeast 459 528 39,000  Level Kansas City Center
12:24PM 38.7417 -96.6600 65° Northeast 459 528 39,000  Level Kansas City Center
12:25PM 38.7983 -96.5133 64° Northeast 460 529 39,000  Level Kansas City Center
12:26PM 38.8544 -96.3556 65° Northeast 457 526 39,000  Level Kansas City Center
12:27PM 38.9053 -96.2122 65° Northeast 459 528 39,000  Level Kansas City Center
12:28PM 38.9639 -96.0458 66° East 458 527 39,000  Level Kansas City Center
12:29PM 39.0156 -95.9031 65° Northeast 461 531 39,000  Level Kansas City Center
12:30PM 39.0669 -95.7608 65° Northeast 460 529 39,000  Level Kansas City Center
12:31PM 39.1261 -95.5944 65° Northeast 458 527 39,000  Level Kansas City Center
12:32PM 39.1811 -95.4369 66° East 456 525 39,000  Level Kansas City Center
12:33PM 39.2331 -95.2878 66° East 456 525 39,000  Level Kansas City Center
12:34PM 39.2886 -95.1303 65° Northeast 450 518 39,000  Level Kansas City Center
12:35PM 39.3369 -94.9908 66° East 455 524 39,000  Level Kansas City Center
12:36PM 39.3950 -94.8256 66° East 453 521 39,000  Level Kansas City Center
12:37PM 39.4450 -94.6811 66° East 460 529 39,000  Level Kansas City Center
12:39PM 39.4939 -94.5375 66° East 458 527 39,000  Level Kansas City Center
12:40PM 39.5497 -94.3706 67° East 452 520 39,000  Level Kansas City Center
12:41PM 39.5981 -94.2283 66° East 451 519 39,000  Level Kansas City Center
12:42PM 39.6547 -94.0619 66° East 451 519 39,000  Level Kansas City Center
12:43PM 39.7019 -93.9197 67° East 448 516 39,000  Level Kansas City Center
12:44PM 39.7492 -93.7767 67° East 448 516 39,000  Level Kansas City Center
12:45PM 39.7997 -93.6208 67° East 451 519 39,000  Level Kansas City Center
12:46PM 39.8494 -93.4747 66° East 448 516 39,000  Level Kansas City Center
12:47PM 39.9081 -93.2961 67° East 450 518 39,000  Level Kansas City Center
12:48PM 39.9572 -93.1492 66° East 448 516 39,000  Level Kansas City Center
12:49PM 40.0033 -93.0000 68° East 448 516 39,000  Level Kansas City Center
12:50PM 40.0511 -92.8522 67° East 447 514 39,000  Level Kansas City Center
12:51PM 40.1050 -92.6794 68° East 447 514 39,000  Level Kansas City Center
12:52PM 40.1478 -92.5361 69° East 444 511 39,000  Level Kansas City Center
12:53PM 40.1778 -92.3853 75° East 443 510 39,000  Level Kansas City Center
12:54PM 40.2108 -92.2239 75° East 443 510 39,000  Level Kansas City Center
12:55PM 40.2417 -92.0717 75° East 439 505 39,000  Level Kansas City Center
12:56PM 40.2719 -91.9194 75° East 438 504 39,000  Level Kansas City Center
12:57PM 40.3089 -91.7386 75° East 434 499 39,000  Level Kansas City Center
12:58PM 40.3383 -91.5858 76° East 436 502 39,000  Level Kansas City Center
12:59PM 40.3686 -91.4339 75° East 435 501 39,000 -240 Level Kansas City Center
12:59PM 40.3761 -91.4042 72° East 434 499 38,700 -2,520 Descending Chicago Center
01:00PM 40.4119 -91.2256 75° East 430 495 35,800 -2,760 Descending Chicago Center
01:01PM 40.4411 -91.0728 76° East 430 495 33,100 -1,380 Descending Chicago Center
01:02PM 40.4719 -90.9106 76° East 453 521 33,000 -60 Descending Chicago Center
01:03PM 40.5028 -90.7467 76° East 461 531 33,000 -540 Level Chicago Center
01:04PM 40.5333 -90.5850 76° East 458 527 32,000 -1,020 Descending Chicago Center
01:06PM 40.5647 -90.4219 76° East 460 529 31,000 -1,020 Descending Chicago Center
01:07PM 40.5986 -90.2344 77° East 450 518 29,900 -1,080 Descending Chicago Center
01:08PM 40.6275 -90.0781 76° East 443 510 28,800 -1,680 Descending Chicago Center
01:09PM 40.6550 -89.9281 76° East 428 493 26,500 -2,700 Descending Chicago Center
01:10PM 40.6825 -89.7739 77° East 436 502 23,300 -2,700 Descending Chicago Center
01:11PM 40.7450 -89.6431 58° Northeast 433 498 21,000 -2,460 Descending Chicago Center
01:12PM 40.8078 -89.4978 60° Northeast 403 464 18,300 -2,460 Descending Chicago Center
01:13PM 40.8606 -89.3747 60° Northeast 389 448 16,000 -1,620 Descending Chicago Center
01:14PM 40.9128 -89.2550 60° Northeast 380 437 15,000 -540 Descending Chicago Center
01:15PM 40.9814 -89.1553 48° Northeast 371 427 15,000  Level Chicago Center
01:16PM 41.0531 -89.0500 48° Northeast 371 427 15,000 -420 Level Chicago Center
01:17PM 41.1225 -88.9489 48° Northeast 373 429 14,200 -1,440 Descending Chicago Center
01:18PM 41.1889 -88.8514 48° Northeast 362 417 12,100 -1,920 Descending Chicago Center
01:19PM 41.2642 -88.7378 49° Northeast 343 395 10,300 -1,320 Descending Chicago Center
01:20PM 41.3189 -88.6569 48° Northeast 299 344 9,500 -1,080 Descending Chicago Center
01:21PM 41.3714 -88.5783 48° Northeast 289 333 8,100 -1,500 Descending Chicago Center
01:22PM 41.4242 -88.5003 48° Northeast 286 329 6,500 -1,020 Descending Chicago Center
01:23PM 41.4589 -88.4133 62° Northeast 271 312 6,000 -600 Descending Chicago Center
01:24PM 41.4875 -88.3228 67° East 267 307 5,300 -1,020 Descending Chicago Center
01:25PM 41.5189 -88.2281 66° East 276 318 4,000 -660 Descending Chicago Center
01:26PM 41.5522 -88.1392 63° Northeast 271 312 4,000  Level Chicago Center
01:27PM 41.5872 -88.0414 64° Northeast 250 288 4,000  Level Chicago Center
01:28PM 41.6139 -87.9664 65° Northeast 233 268 4,000 -120 Level Chicago Center
01:29PM 41.6619 -87.9089 42° Northeast 231 266 3,800 -300 Descending Chicago Center
01:30PM 41.6833 -87.8667 56° Northeast 207 238 3,500 -660 Descending Chicago TRACON
01:31PM 41.7333 -87.8333 26° Northeast 191 220 2,800 -720 Descending Chicago TRACON
01:32PM 41.7833 -87.8333 360° North 170 196 2,200 -420 Descending Chicago TRACON
01:33PM 41.8167 -87.8167 20° North 158 182 2,100 -600 Descending Chicago TRACON
01:34PM 41.8000 -87.7833 124° Southeast 132 152 1,100 -1,020 Descending Chicago TRACON
01:36PM 41.7833 -87.7500 51° Northeast  Level FlightAware Approximate